sensor_id;sensor_type;location;lat;lon;timestamp;temperature;humidity
74923;HTU21D;64715;44.760;37.678;2023-05-10T00:00:55;9.65;85.61
74923;HTU21D;64715;44.760;37.678;2023-05-10T00:01:56;9.63;85.75
74923;HTU21D;64715;44.760;37.678;2023-05-10T00:02:57;9.62;85.59
74923;HTU21D;64715;44.760;37.678;2023-05-10T00:03:59;9.63;85.71
74923;HTU21D;64715;44.760;37.678;2023-05-10T00:05:00;9.62;85.63
74923;HTU21D;64715;44.760;37.678;2023-05-10T00:06:01;9.60;85.51
74923;HTU21D;64715;44.760;37.678;2023-05-10T00:07:02;9.60;85.70
74923;HTU21D;64715;44.760;37.678;2023-05-10T00:08:03;9.59;85.84
74923;HTU21D;64715;44.760;37.678;2023-05-10T00:09:04;9.60;85.78
74923;HTU21D;64715;44.760;37.678;2023-05-10T00:10:05;9.59;85.65
74923;HTU21D;64715;44.760;37.678;2023-05-10T00:11:08;9.60;85.67
74923;HTU21D;64715;44.760;37.678;2023-05-10T00:12:09;9.56;85.80
74923;HTU21D;64715;44.760;37.678;2023-05-10T00:13:10;9.55;85.58
74923;HTU21D;64715;44.760;37.678;2023-05-10T00:14:11;9.56;85.55
74923;HTU21D;64715;44.760;37.678;2023-05-10T00:15:13;9.55;85.78
74923;HTU21D;64715;44.760;37.678;2023-05-10T00:16:14;9.56;85.54
74923;HTU21D;64715;44.760;37.678;2023-05-10T00:17:15;9.57;85.56
74923;HTU21D;64715;44.760;37.678;2023-05-10T00:18:16;9.56;85.96
74923;HTU21D;64715;44.760;37.678;2023-05-10T00:19:17;9.57;85.68
74923;HTU21D;64715;44.760;37.678;2023-05-10T00:20:18;9.57;85.58
74923;HTU21D;64715;44.760;37.678;2023-05-10T00:21:19;9.56;85.71
74923;HTU21D;64715;44.760;37.678;2023-05-10T00:22:20;9.60;85.84
74923;HTU21D;64715;44.760;37.678;2023-05-10T00:23:21;9.56;85.84
74923;HTU21D;64715;44.760;37.678;2023-05-10T00:24:22;9.55;85.96
74923;HTU21D;64715;44.760;37.678;2023-05-10T00:25:23;9.56;85.47
74923;HTU21D;64715;44.760;37.678;2023-05-10T00:26:24;9.53;85.60
74923;HTU21D;64715;44.760;37.678;2023-05-10T00:27:28;9.50;85.65
74923;HTU21D;64715;44.760;37.678;2023-05-10T00:28:29;9.49;85.58
74923;HTU21D;64715;44.760;37.678;2023-05-10T00:29:31;9.49;85.45
74923;HTU21D;64715;44.760;37.678;2023-05-10T00:30:32;9.48;85.53
74923;HTU21D;64715;44.760;37.678;2023-05-10T00:31:33;9.46;85.49
74923;HTU21D;64715;44.760;37.678;2023-05-10T00:32:34;9.46;85.63
74923;HTU21D;64715;44.760;37.678;2023-05-10T00:33:35;9.44;85.33
74923;HTU21D;64715;44.760;37.678;2023-05-10T00:34:37;9.42;85.51
74923;HTU21D;64715;44.760;37.678;2023-05-10T00:35:38;9.44;85.55
74923;HTU21D;64715;44.760;37.678;2023-05-10T00:36:39;9.44;85.72
74923;HTU21D;64715;44.760;37.678;2023-05-10T00:37:41;9.41;85.58
74923;HTU21D;64715;44.760;37.678;2023-05-10T00:38:42;9.40;85.71
74923;HTU21D;64715;44.760;37.678;2023-05-10T00:39:44;9.40;85.63
74923;HTU21D;64715;44.760;37.678;2023-05-10T00:40:45;9.36;85.61
74923;HTU21D;64715;44.760;37.678;2023-05-10T00:41:54;9.35;85.42
74923;HTU21D;64715;44.760;37.678;2023-05-10T00:42:56;9.33;85.62
74923;HTU21D;64715;44.760;37.678;2023-05-10T00:43:58;9.31;85.70
74923;HTU21D;64715;44.760;37.678;2023-05-10T00:44:59;9.32;85.61
74923;HTU21D;64715;44.760;37.678;2023-05-10T00:46:00;9.30;85.45
74923;HTU21D;64715;44.760;37.678;2023-05-10T00:47:01;9.27;85.45
74923;HTU21D;64715;44.760;37.678;2023-05-10T00:48:02;9.26;85.62
74923;HTU21D;64715;44.760;37.678;2023-05-10T00:49:04;9.24;85.40
74923;HTU21D;64715;44.760;37.678;2023-05-10T00:50:06;9.24;85.62
74923;HTU21D;64715;44.760;37.678;2023-05-10T00:51:07;9.24;85.74
74923;HTU21D;64715;44.760;37.678;2023-05-10T00:52:09;9.24;85.41
74923;HTU21D;64715;44.760;37.678;2023-05-10T00:53:12;9.23;85.54
74923;HTU21D;64715;44.760;37.678;2023-05-10T00:54:14;9.20;85.55
74923;HTU21D;64715;44.760;37.678;2023-05-10T00:55:16;9.18;85.74
74923;HTU21D;64715;44.760;37.678;2023-05-10T00:56:17;9.19;85.48
74923;HTU21D;64715;44.760;37.678;2023-05-10T00:57:18;9.15;85.26
74923;HTU21D;64715;44.760;37.678;2023-05-10T00:58:20;9.14;85.25
74923;HTU21D;64715;44.760;37.678;2023-05-10T00:59:21;9.12;85.51
74923;HTU21D;64715;44.760;37.678;2023-05-10T01:00:23;9.12;85.58
74923;HTU21D;64715;44.760;37.678;2023-05-10T01:01:25;9.09;85.42
74923;HTU21D;64715;44.760;37.678;2023-05-10T01:02:26;9.07;85.55
74923;HTU21D;64715;44.760;37.678;2023-05-10T01:03:27;9.04;85.64
74923;HTU21D;64715;44.760;37.678;2023-05-10T01:04:29;9.01;85.45
74923;HTU21D;64715;44.760;37.678;2023-05-10T01:05:31;9.01;85.48
74923;HTU21D;64715;44.760;37.678;2023-05-10T01:06:32;8.98;85.52
74923;HTU21D;64715;44.760;37.678;2023-05-10T01:07:33;8.96;85.37
74923;HTU21D;64715;44.760;37.678;2023-05-10T01:08:34;8.94;85.66
74923;HTU21D;64715;44.760;37.678;2023-05-10T01:09:35;8.92;85.40
74923;HTU21D;64715;44.760;37.678;2023-05-10T01:10:37;8.90;85.61
74923;HTU21D;64715;44.760;37.678;2023-05-10T01:11:39;8.88;85.34
74923;HTU21D;64715;44.760;37.678;2023-05-10T01:12:43;8.87;85.41
74923;HTU21D;64715;44.760;37.678;2023-05-10T01:13:47;8.86;85.45
74923;HTU21D;64715;44.760;37.678;2023-05-10T01:14:50;8.81;85.75
74923;HTU21D;64715;44.760;37.678;2023-05-10T01:15:52;8.80;85.38
74923;HTU21D;64715;44.760;37.678;2023-05-10T01:16:53;8.77;85.63
74923;HTU21D;64715;44.760;37.678;2023-05-10T01:17:55;8.76;85.46
74923;HTU21D;64715;44.760;37.678;2023-05-10T01:18:57;8.73;85.75
74923;HTU21D;64715;44.760;37.678;2023-05-10T01:19:58;8.73;85.77
74923;HTU21D;64715;44.760;37.678;2023-05-10T01:22:50;8.68;86.00
74923;HTU21D;64715;44.760;37.678;2023-05-10T01:27:07;8.63;85.91
74923;HTU21D;64715;44.760;37.678;2023-05-10T01:32:35;8.65;86.22
74923;HTU21D;64715;44.760;37.678;2023-05-10T01:33:51;8.65;86.35
74923;HTU21D;64715;44.760;37.678;2023-05-10T01:37:16;8.70;86.35
74923;HTU21D;64715;44.760;37.678;2023-05-10T01:39:55;8.71;86.53
74923;HTU21D;64715;44.760;37.678;2023-05-10T01:42:17;8.73;86.47
74923;HTU21D;64715;44.760;37.678;2023-05-10T01:43:23;8.71;86.55
74923;HTU21D;64715;44.760;37.678;2023-05-10T01:44:35;8.74;86.66
74923;HTU21D;64715;44.760;37.678;2023-05-10T01:45:54;8.73;86.69
74923;HTU21D;64715;44.760;37.678;2023-05-10T01:47:09;8.73;86.35
74923;HTU21D;64715;44.760;37.678;2023-05-10T01:48:14;8.75;86.50
74923;HTU21D;64715;44.760;37.678;2023-05-10T01:49:25;8.76;86.58
74923;HTU21D;64715;44.760;37.678;2023-05-10T01:50:29;8.75;86.56
74923;HTU21D;64715;44.760;37.678;2023-05-10T01:51:51;8.74;86.45
74923;HTU21D;64715;44.760;37.678;2023-05-10T01:52:56;8.72;86.55
74923;HTU21D;64715;44.760;37.678;2023-05-10T01:54:01;8.68;86.44
74923;HTU21D;64715;44.760;37.678;2023-05-10T01:55:06;8.71;86.39
74923;HTU21D;64715;44.760;37.678;2023-05-10T01:56:10;8.70;86.45
74923;HTU21D;64715;44.760;37.678;2023-05-10T01:57:13;8.68;86.33
74923;HTU21D;64715;44.760;37.678;2023-05-10T01:58:21;8.70;86.38
74923;HTU21D;64715;44.760;37.678;2023-05-10T01:59:29;8.68;86.60
74923;HTU21D;64715;44.760;37.678;2023-05-10T02:00:31;8.66;86.14
74923;HTU21D;64715;44.760;37.678;2023-05-10T02:01:34;8.66;86.38
74923;HTU21D;64715;44.760;37.678;2023-05-10T02:02:53;8.68;86.38
74923;HTU21D;64715;44.760;37.678;2023-05-10T02:03:55;8.65;86.09
74923;HTU21D;64715;44.760;37.678;2023-05-10T02:04:58;8.66;86.22
74923;HTU21D;64715;44.760;37.678;2023-05-10T02:06:01;8.65;86.39
74923;HTU21D;64715;44.760;37.678;2023-05-10T02:07:06;8.68;86.36
74923;HTU21D;64715;44.760;37.678;2023-05-10T02:08:08;8.67;86.38
74923;HTU21D;64715;44.760;37.678;2023-05-10T02:09:11;8.68;86.51
74923;HTU21D;64715;44.760;37.678;2023-05-10T02:10:14;8.70;86.49
74923;HTU21D;64715;44.760;37.678;2023-05-10T02:11:17;8.71;86.41
74923;HTU21D;64715;44.760;37.678;2023-05-10T02:12:20;8.72;86.59
74923;HTU21D;64715;44.760;37.678;2023-05-10T02:13:25;8.74;86.18
74923;HTU21D;64715;44.760;37.678;2023-05-10T02:14:30;8.74;86.49
74923;HTU21D;64715;44.760;37.678;2023-05-10T02:15:33;8.73;86.60
74923;HTU21D;64715;44.760;37.678;2023-05-10T02:16:36;8.76;86.72
74923;HTU21D;64715;44.760;37.678;2023-05-10T02:17:39;8.78;86.70
74923;HTU21D;64715;44.760;37.678;2023-05-10T02:18:41;8.79;86.60
74923;HTU21D;64715;44.760;37.678;2023-05-10T02:19:43;8.82;86.64
74923;HTU21D;64715;44.760;37.678;2023-05-10T02:20:46;8.82;86.62
74923;HTU21D;64715;44.760;37.678;2023-05-10T02:21:48;8.86;86.82
74923;HTU21D;64715;44.760;37.678;2023-05-10T02:22:52;8.86;86.64
74923;HTU21D;64715;44.760;37.678;2023-05-10T02:23:56;8.89;86.36
74923;HTU21D;64715;44.760;37.678;2023-05-10T02:24:58;8.91;86.64
74923;HTU21D;64715;44.760;37.678;2023-05-10T02:26:01;8.93;86.89
74923;HTU21D;64715;44.760;37.678;2023-05-10T02:27:03;8.95;86.61
74923;HTU21D;64715;44.760;37.678;2023-05-10T02:28:06;8.97;86.63
74923;HTU21D;64715;44.760;37.678;2023-05-10T02:29:11;8.97;86.52
74923;HTU21D;64715;44.760;37.678;2023-05-10T02:30:13;9.00;86.71
74923;HTU21D;64715;44.760;37.678;2023-05-10T02:31:15;9.03;86.68
74923;HTU21D;64715;44.760;37.678;2023-05-10T02:32:17;9.04;86.50
74923;HTU21D;64715;44.760;37.678;2023-05-10T02:33:20;9.05;86.67
74923;HTU21D;64715;44.760;37.678;2023-05-10T02:34:23;9.06;86.75
74923;HTU21D;64715;44.760;37.678;2023-05-10T02:35:26;9.07;86.63
74923;HTU21D;64715;44.760;37.678;2023-05-10T02:36:28;9.08;86.60
74923;HTU21D;64715;44.760;37.678;2023-05-10T02:37:30;9.11;86.58
74923;HTU21D;64715;44.760;37.678;2023-05-10T02:38:33;9.12;86.60
74923;HTU21D;64715;44.760;37.678;2023-05-10T02:39:35;9.14;86.64
74923;HTU21D;64715;44.760;37.678;2023-05-10T02:40:38;9.14;86.74
74923;HTU21D;64715;44.760;37.678;2023-05-10T02:41:42;9.15;86.49
74923;HTU21D;64715;44.760;37.678;2023-05-10T02:42:45;9.17;86.51
74923;HTU21D;64715;44.760;37.678;2023-05-10T02:43:50;9.18;86.51
74923;HTU21D;64715;44.760;37.678;2023-05-10T02:44:56;9.18;86.62
74923;HTU21D;64715;44.760;37.678;2023-05-10T02:46:00;9.20;86.51
74923;HTU21D;64715;44.760;37.678;2023-05-10T02:47:01;9.22;86.61
74923;HTU21D;64715;44.760;37.678;2023-05-10T02:48:03;9.22;86.54
74923;HTU21D;64715;44.760;37.678;2023-05-10T02:49:05;9.24;86.32
74923;HTU21D;64715;44.760;37.678;2023-05-10T02:50:07;9.23;86.64
74923;HTU21D;64715;44.760;37.678;2023-05-10T02:51:12;9.25;86.44
74923;HTU21D;64715;44.760;37.678;2023-05-10T02:52:20;9.29;86.77
74923;HTU21D;64715;44.760;37.678;2023-05-10T02:53:31;9.30;86.79
74923;HTU21D;64715;44.760;37.678;2023-05-10T02:54:39;9.31;86.77
74923;HTU21D;64715;44.760;37.678;2023-05-10T02:55:44;9.34;86.42
74923;HTU21D;64715;44.760;37.678;2023-05-10T02:56:57;9.36;86.60
74923;HTU21D;64715;44.760;37.678;2023-05-10T02:58:00;9.36;86.56
74923;HTU21D;64715;44.760;37.678;2023-05-10T02:59:01;9.38;86.67
74923;HTU21D;64715;44.760;37.678;2023-05-10T03:00:03;9.40;86.58
74923;HTU21D;64715;44.760;37.678;2023-05-10T03:01:05;9.41;86.53
74923;HTU21D;64715;44.760;37.678;2023-05-10T03:02:09;9.44;86.83
74923;HTU21D;64715;44.760;37.678;2023-05-10T03:03:11;9.47;86.54
74923;HTU21D;64715;44.760;37.678;2023-05-10T03:04:12;9.51;86.70
74923;HTU21D;64715;44.760;37.678;2023-05-10T03:05:13;9.57;86.56
74923;HTU21D;64715;44.760;37.678;2023-05-10T03:06:14;9.65;86.79
74923;HTU21D;64715;44.760;37.678;2023-05-10T03:07:17;9.72;87.02
74923;HTU21D;64715;44.760;37.678;2023-05-10T03:08:22;9.82;87.06
74923;HTU21D;64715;44.760;37.678;2023-05-10T03:09:24;9.86;86.81
74923;HTU21D;64715;44.760;37.678;2023-05-10T03:10:27;9.91;86.71
74923;HTU21D;64715;44.760;37.678;2023-05-10T03:11:47;9.96;86.62
74923;HTU21D;64715;44.760;37.678;2023-05-10T03:17:00;10.04;86.33
74923;HTU21D;64715;44.760;37.678;2023-05-10T03:18:10;10.05;86.29
74923;HTU21D;64715;44.760;37.678;2023-05-10T03:21:03;10.05;86.23
74923;HTU21D;64715;44.760;37.678;2023-05-10T03:22:10;10.06;86.65
74923;HTU21D;64715;44.760;37.678;2023-05-10T03:23:40;10.13;86.44
74923;HTU21D;64715;44.760;37.678;2023-05-10T03:24:44;10.19;86.50
74923;HTU21D;64715;44.760;37.678;2023-05-10T03:25:48;10.24;86.39
74923;HTU21D;64715;44.760;37.678;2023-05-10T03:26:52;10.27;86.64
74923;HTU21D;64715;44.760;37.678;2023-05-10T03:27:56;10.33;86.45
74923;HTU21D;64715;44.760;37.678;2023-05-10T03:28:58;10.37;86.17
74923;HTU21D;64715;44.760;37.678;2023-05-10T03:30:01;10.42;86.31
74923;HTU21D;64715;44.760;37.678;2023-05-10T03:31:06;10.46;86.34
74923;HTU21D;64715;44.760;37.678;2023-05-10T03:32:08;10.51;86.31
74923;HTU21D;64715;44.760;37.678;2023-05-10T03:33:09;10.54;86.19
74923;HTU21D;64715;44.760;37.678;2023-05-10T03:34:15;10.55;86.11
74923;HTU21D;64715;44.760;37.678;2023-05-10T03:35:16;10.57;86.22
74923;HTU21D;64715;44.760;37.678;2023-05-10T03:36:17;10.60;86.03
74923;HTU21D;64715;44.760;37.678;2023-05-10T03:37:18;10.65;86.12
74923;HTU21D;64715;44.760;37.678;2023-05-10T03:38:19;10.66;85.87
74923;HTU21D;64715;44.760;37.678;2023-05-10T03:39:20;10.68;85.67
74923;HTU21D;64715;44.760;37.678;2023-05-10T03:40:26;10.69;85.55
74923;HTU21D;64715;44.760;37.678;2023-05-10T03:41:29;10.73;85.78
74923;HTU21D;64715;44.760;37.678;2023-05-10T03:42:30;10.74;85.68
74923;HTU21D;64715;44.760;37.678;2023-05-10T03:43:31;10.75;85.52
74923;HTU21D;64715;44.760;37.678;2023-05-10T03:44:32;10.77;85.47
74923;HTU21D;64715;44.760;37.678;2023-05-10T03:45:33;10.80;85.41
74923;HTU21D;64715;44.760;37.678;2023-05-10T03:46:35;10.80;85.35
74923;HTU21D;64715;44.760;37.678;2023-05-10T03:47:36;10.81;85.14
74923;HTU21D;64715;44.760;37.678;2023-05-10T03:48:37;10.80;85.32
74923;HTU21D;64715;44.760;37.678;2023-05-10T03:49:40;10.83;85.19
74923;HTU21D;64715;44.760;37.678;2023-05-10T03:50:41;10.86;85.19
74923;HTU21D;64715;44.760;37.678;2023-05-10T03:51:43;10.86;85.05
74923;HTU21D;64715;44.760;37.678;2023-05-10T03:52:46;10.88;85.06
74923;HTU21D;64715;44.760;37.678;2023-05-10T03:53:47;10.88;85.06
74923;HTU21D;64715;44.760;37.678;2023-05-10T03:54:48;10.89;85.06
74923;HTU21D;64715;44.760;37.678;2023-05-10T03:55:49;10.90;84.97
74923;HTU21D;64715;44.760;37.678;2023-05-10T03:56:50;10.95;84.93
74923;HTU21D;64715;44.760;37.678;2023-05-10T03:57:53;10.95;84.95
74923;HTU21D;64715;44.760;37.678;2023-05-10T03:58:56;10.98;84.84
74923;HTU21D;64715;44.760;37.678;2023-05-10T03:59:57;11.01;84.72
74923;HTU21D;64715;44.760;37.678;2023-05-10T04:00:58;11.04;84.62
74923;HTU21D;64715;44.760;37.678;2023-05-10T04:01:59;11.05;84.80
74923;HTU21D;64715;44.760;37.678;2023-05-10T04:03:00;11.05;84.55
74923;HTU21D;64715;44.760;37.678;2023-05-10T04:04:01;11.07;84.47
74923;HTU21D;64715;44.760;37.678;2023-05-10T04:05:02;11.09;84.50
74923;HTU21D;64715;44.760;37.678;2023-05-10T04:06:03;11.12;84.52
74923;HTU21D;64715;44.760;37.678;2023-05-10T04:07:04;11.12;84.16
74923;HTU21D;64715;44.760;37.678;2023-05-10T04:08:06;11.16;84.46
74923;HTU21D;64715;44.760;37.678;2023-05-10T04:09:07;11.17;84.48
74923;HTU21D;64715;44.760;37.678;2023-05-10T04:10:09;11.18;84.19
74923;HTU21D;64715;44.760;37.678;2023-05-10T04:11:11;11.20;84.16
74923;HTU21D;64715;44.760;37.678;2023-05-10T04:12:13;11.20;84.36
74923;HTU21D;64715;44.760;37.678;2023-05-10T04:13:14;11.20;84.01
74923;HTU21D;64715;44.760;37.678;2023-05-10T04:14:15;11.22;84.04
74923;HTU21D;64715;44.760;37.678;2023-05-10T04:15:17;11.20;84.00
74923;HTU21D;64715;44.760;37.678;2023-05-10T04:16:18;11.23;84.07
74923;HTU21D;64715;44.760;37.678;2023-05-10T04:17:19;11.22;83.95
74923;HTU21D;64715;44.760;37.678;2023-05-10T04:18:20;11.24;83.92
74923;HTU21D;64715;44.760;37.678;2023-05-10T04:19:21;11.24;83.89
74923;HTU21D;64715;44.760;37.678;2023-05-10T04:20:21;11.25;83.61
74923;HTU21D;64715;44.760;37.678;2023-05-10T04:21:22;11.26;83.91
74923;HTU21D;64715;44.760;37.678;2023-05-10T04:22:24;11.27;83.87
74923;HTU21D;64715;44.760;37.678;2023-05-10T04:23:28;11.30;83.95
74923;HTU21D;64715;44.760;37.678;2023-05-10T04:24:29;11.31;83.79
74923;HTU21D;64715;44.760;37.678;2023-05-10T04:25:30;11.32;83.95
74923;HTU21D;64715;44.760;37.678;2023-05-10T04:26:31;11.36;83.71
74923;HTU21D;64715;44.760;37.678;2023-05-10T04:27:32;11.38;83.58
74923;HTU21D;64715;44.760;37.678;2023-05-10T04:28:33;11.42;84.02
74923;HTU21D;64715;44.760;37.678;2023-05-10T04:29:34;11.47;83.71
74923;HTU21D;64715;44.760;37.678;2023-05-10T04:30:35;11.53;83.90
74923;HTU21D;64715;44.760;37.678;2023-05-10T04:31:36;11.58;83.82
74923;HTU21D;64715;44.760;37.678;2023-05-10T04:32:37;11.61;83.61
74923;HTU21D;64715;44.760;37.678;2023-05-10T04:33:38;11.62;83.79
74923;HTU21D;64715;44.760;37.678;2023-05-10T04:34:43;11.64;83.53
74923;HTU21D;64715;44.760;37.678;2023-05-10T04:35:44;11.69;83.47
74923;HTU21D;64715;44.760;37.678;2023-05-10T04:36:46;11.71;83.52
74923;HTU21D;64715;44.760;37.678;2023-05-10T04:37:47;11.75;83.58
74923;HTU21D;64715;44.760;37.678;2023-05-10T04:38:48;11.78;83.32
74923;HTU21D;64715;44.760;37.678;2023-05-10T04:39:49;11.81;83.24
74923;HTU21D;64715;44.760;37.678;2023-05-10T04:40:50;11.84;83.23
74923;HTU21D;64715;44.760;37.678;2023-05-10T04:41:51;11.86;83.20
74923;HTU21D;64715;44.760;37.678;2023-05-10T04:42:53;11.89;82.56
74923;HTU21D;64715;44.760;37.678;2023-05-10T04:43:54;11.94;83.07
74923;HTU21D;64715;44.760;37.678;2023-05-10T04:44:55;12.00;82.75
74923;HTU21D;64715;44.760;37.678;2023-05-10T04:45:56;12.07;82.78
74923;HTU21D;64715;44.760;37.678;2023-05-10T04:46:57;12.13;82.40
74923;HTU21D;64715;44.760;37.678;2023-05-10T04:47:58;12.17;82.42
74923;HTU21D;64715;44.760;37.678;2023-05-10T04:48:59;12.17;82.48
74923;HTU21D;64715;44.760;37.678;2023-05-10T04:50:00;12.19;82.21
74923;HTU21D;64715;44.760;37.678;2023-05-10T04:51:01;12.19;81.98
74923;HTU21D;64715;44.760;37.678;2023-05-10T04:52:04;12.20;81.81
74923;HTU21D;64715;44.760;37.678;2023-05-10T04:53:06;12.19;81.76
74923;HTU21D;64715;44.760;37.678;2023-05-10T04:54:08;12.15;81.83
74923;HTU21D;64715;44.760;37.678;2023-05-10T04:55:09;12.13;81.85
74923;HTU21D;64715;44.760;37.678;2023-05-10T04:56:13;12.12;81.85
74923;HTU21D;64715;44.760;37.678;2023-05-10T04:57:14;12.08;81.62
74923;HTU21D;64715;44.760;37.678;2023-05-10T04:58:15;12.03;81.67
74923;HTU21D;64715;44.760;37.678;2023-05-10T04:59:18;12.01;81.45
74923;HTU21D;64715;44.760;37.678;2023-05-10T05:00:20;12.01;81.43
74923;HTU21D;64715;44.760;37.678;2023-05-10T05:01:21;12.03;81.37
74923;HTU21D;64715;44.760;37.678;2023-05-10T05:02:23;12.04;81.46
74923;HTU21D;64715;44.760;37.678;2023-05-10T05:03:25;12.02;81.17
74923;HTU21D;64715;44.760;37.678;2023-05-10T05:04:26;12.02;81.33
74923;HTU21D;64715;44.760;37.678;2023-05-10T05:05:27;12.00;81.15
74923;HTU21D;64715;44.760;37.678;2023-05-10T05:06:28;11.99;80.84
74923;HTU21D;64715;44.760;37.678;2023-05-10T05:07:28;11.96;81.07
74923;HTU21D;64715;44.760;37.678;2023-05-10T05:08:31;11.92;80.99
74923;HTU21D;64715;44.760;37.678;2023-05-10T05:09:32;11.89;80.88
74923;HTU21D;64715;44.760;37.678;2023-05-10T05:10:33;11.86;80.70
74923;HTU21D;64715;44.760;37.678;2023-05-10T05:11:34;11.78;80.72
74923;HTU21D;64715;44.760;37.678;2023-05-10T05:12:35;11.74;80.92
74923;HTU21D;64715;44.760;37.678;2023-05-10T05:13:37;11.66;80.81
74923;HTU21D;64715;44.760;37.678;2023-05-10T05:14:38;11.59;80.70
74923;HTU21D;64715;44.760;37.678;2023-05-10T05:15:38;11.54;80.54
74923;HTU21D;64715;44.760;37.678;2023-05-10T05:16:41;11.45;80.55
74923;HTU21D;64715;44.760;37.678;2023-05-10T05:17:43;11.39;80.59
74923;HTU21D;64715;44.760;37.678;2023-05-10T05:18:44;11.33;80.72
74923;HTU21D;64715;44.760;37.678;2023-05-10T05:19:45;11.27;80.38
74923;HTU21D;64715;44.760;37.678;2023-05-10T05:20:46;11.20;80.65
74923;HTU21D;64715;44.760;37.678;2023-05-10T05:21:47;11.20;80.64
74923;HTU21D;64715;44.760;37.678;2023-05-10T05:22:48;11.15;80.60
74923;HTU21D;64715;44.760;37.678;2023-05-10T05:23:49;11.11;80.85
74923;HTU21D;64715;44.760;37.678;2023-05-10T05:24:50;11.10;80.83
74923;HTU21D;64715;44.760;37.678;2023-05-10T05:25:54;11.09;80.76
74923;HTU21D;64715;44.760;37.678;2023-05-10T05:26:55;11.09;81.11
74923;HTU21D;64715;44.760;37.678;2023-05-10T05:27:56;11.10;80.91
74923;HTU21D;64715;44.760;37.678;2023-05-10T05:28:57;11.14;81.26
74923;HTU21D;64715;44.760;37.678;2023-05-10T05:29:58;11.19;81.30
74923;HTU21D;64715;44.760;37.678;2023-05-10T05:30:59;11.26;81.47
74923;HTU21D;64715;44.760;37.678;2023-05-10T05:32:00;11.31;81.58
74923;HTU21D;64715;44.760;37.678;2023-05-10T05:33:02;11.38;81.65
74923;HTU21D;64715;44.760;37.678;2023-05-10T05:34:02;11.46;81.78
74923;HTU21D;64715;44.760;37.678;2023-05-10T05:35:04;11.56;81.91
74923;HTU21D;64715;44.760;37.678;2023-05-10T05:36:05;11.63;81.43
74923;HTU21D;64715;44.760;37.678;2023-05-10T05:37:06;11.69;81.55
74923;HTU21D;64715;44.760;37.678;2023-05-10T05:38:08;11.74;81.31
74923;HTU21D;64715;44.760;37.678;2023-05-10T05:39:09;11.81;81.35
74923;HTU21D;64715;44.760;37.678;2023-05-10T05:40:12;11.86;81.08
74923;HTU21D;64715;44.760;37.678;2023-05-10T05:41:13;11.90;80.98
74923;HTU21D;64715;44.760;37.678;2023-05-10T05:42:14;11.94;81.04
74923;HTU21D;64715;44.760;37.678;2023-05-10T05:43:17;12.00;81.19
74923;HTU21D;64715;44.760;37.678;2023-05-10T05:44:18;12.06;80.89
74923;HTU21D;64715;44.760;37.678;2023-05-10T05:45:18;12.08;80.81
74923;HTU21D;64715;44.760;37.678;2023-05-10T05:46:20;12.11;80.65
74923;HTU21D;64715;44.760;37.678;2023-05-10T05:47:20;12.13;80.63
74923;HTU21D;64715;44.760;37.678;2023-05-10T05:48:21;12.15;80.17
74923;HTU21D;64715;44.760;37.678;2023-05-10T05:49:22;12.15;80.17
74923;HTU21D;64715;44.760;37.678;2023-05-10T05:50:23;12.12;79.96
74923;HTU21D;64715;44.760;37.678;2023-05-10T05:51:24;12.13;80.09
74923;HTU21D;64715;44.760;37.678;2023-05-10T05:52:25;12.14;79.94
74923;HTU21D;64715;44.760;37.678;2023-05-10T05:53:26;12.14;79.63
74923;HTU21D;64715;44.760;37.678;2023-05-10T05:54:27;12.15;79.69
74923;HTU21D;64715;44.760;37.678;2023-05-10T05:55:29;12.16;79.42
74923;HTU21D;64715;44.760;37.678;2023-05-10T05:56:32;12.17;79.50
74923;HTU21D;64715;44.760;37.678;2023-05-10T05:57:33;12.19;79.37
74923;HTU21D;64715;44.760;37.678;2023-05-10T05:58:34;12.19;79.03
74923;HTU21D;64715;44.760;37.678;2023-05-10T05:59:35;12.22;79.08
74923;HTU21D;64715;44.760;37.678;2023-05-10T06:00:36;12.21;78.64
74923;HTU21D;64715;44.760;37.678;2023-05-10T06:01:40;12.21;78.81
74923;HTU21D;64715;44.760;37.678;2023-05-10T06:02:43;12.18;78.54
74923;HTU21D;64715;44.760;37.678;2023-05-10T06:03:44;12.22;78.82
74923;HTU21D;64715;44.760;37.678;2023-05-10T06:04:45;12.28;78.82
74923;HTU21D;64715;44.760;37.678;2023-05-10T06:05:47;12.30;78.84
74923;HTU21D;64715;44.760;37.678;2023-05-10T06:06:47;12.36;79.13
74923;HTU21D;64715;44.760;37.678;2023-05-10T06:07:48;12.40;78.59
74923;HTU21D;64715;44.760;37.678;2023-05-10T06:08:49;12.44;78.98
74923;HTU21D;64715;44.760;37.678;2023-05-10T06:09:50;12.50;78.66
74923;HTU21D;64715;44.760;37.678;2023-05-10T06:10:51;12.56;78.59
74923;HTU21D;64715;44.760;37.678;2023-05-10T06:11:52;12.64;78.54
74923;HTU21D;64715;44.760;37.678;2023-05-10T06:12:53;12.71;78.59
74923;HTU21D;64715;44.760;37.678;2023-05-10T06:13:57;12.75;78.07
74923;HTU21D;64715;44.760;37.678;2023-05-10T06:15:00;12.75;78.09
74923;HTU21D;64715;44.760;37.678;2023-05-10T06:16:02;12.76;77.96
74923;HTU21D;64715;44.760;37.678;2023-05-10T06:17:03;12.77;77.70
74923;HTU21D;64715;44.760;37.678;2023-05-10T06:18:05;12.75;77.63
74923;HTU21D;64715;44.760;37.678;2023-05-10T06:19:06;12.75;77.51
74923;HTU21D;64715;44.760;37.678;2023-05-10T06:20:08;12.73;77.29
74923;HTU21D;64715;44.760;37.678;2023-05-10T06:21:09;12.76;77.30
74923;HTU21D;64715;44.760;37.678;2023-05-10T06:22:10;12.73;77.12
74923;HTU21D;64715;44.760;37.678;2023-05-10T06:23:11;12.72;76.89
74923;HTU21D;64715;44.760;37.678;2023-05-10T06:24:12;12.73;76.86
74923;HTU21D;64715;44.760;37.678;2023-05-10T06:25:13;12.73;76.85
74923;HTU21D;64715;44.760;37.678;2023-05-10T06:26:15;12.76;77.16
74923;HTU21D;64715;44.760;37.678;2023-05-10T06:27:16;12.81;76.95
74923;HTU21D;64715;44.760;37.678;2023-05-10T06:28:18;12.87;77.15
74923;HTU21D;64715;44.760;37.678;2023-05-10T06:29:19;12.91;76.89
74923;HTU21D;64715;44.760;37.678;2023-05-10T06:30:20;12.90;77.05
74923;HTU21D;64715;44.760;37.678;2023-05-10T06:31:23;12.91;76.88
74923;HTU21D;64715;44.760;37.678;2023-05-10T06:32:24;12.93;76.66
74923;HTU21D;64715;44.760;37.678;2023-05-10T06:33:26;12.96;76.47
74923;HTU21D;64715;44.760;37.678;2023-05-10T06:34:28;12.99;76.41
74923;HTU21D;64715;44.760;37.678;2023-05-10T06:35:29;13.03;76.37
74923;HTU21D;64715;44.760;37.678;2023-05-10T06:36:30;13.08;76.53
74923;HTU21D;64715;44.760;37.678;2023-05-10T06:37:31;13.12;76.28
74923;HTU21D;64715;44.760;37.678;2023-05-10T06:38:32;13.12;75.73
74923;HTU21D;64715;44.760;37.678;2023-05-10T06:39:33;13.17;75.66
74923;HTU21D;64715;44.760;37.678;2023-05-10T06:40:41;13.14;75.47
74923;HTU21D;64715;44.760;37.678;2023-05-10T06:41:42;13.12;75.85
74923;HTU21D;64715;44.760;37.678;2023-05-10T06:42:43;13.09;75.88
74923;HTU21D;64715;44.760;37.678;2023-05-10T06:43:45;13.11;75.52
74923;HTU21D;64715;44.760;37.678;2023-05-10T06:44:47;13.14;75.50
74923;HTU21D;64715;44.760;37.678;2023-05-10T06:45:48;13.18;75.63